sensor_id;sensor_type;location;lat;lon;timestamp;P1;durP1;ratioP1;P2;durP2;ratioP2
18166;SDS011;9208;42.688;23.404;2023-04-03T00:00:59;6.87;;;5.67;;
18166;SDS011;9208;42.688;23.404;2023-04-03T00:03:25;7.47;;;5.87;;
18166;SDS011;9208;42.688;23.404;2023-04-03T00:05:51;8.17;;;6.57;;
18166;SDS011;9208;42.688;23.404;2023-04-03T00:08:16;8.20;;;6.43;;
18166;SDS011;9208;42.688;23.404;2023-04-03T00:10:42;8.13;;;6.33;;
18166;SDS011;9208;42.688;23.404;2023-04-03T00:13:07;7.13;;;5.97;;
18166;SDS011;9208;42.688;23.404;2023-04-03T00:15:34;7.63;;;5.97;;
18166;SDS011;9208;42.688;23.404;2023-04-03T00:18:00;7.10;;;5.23;;
18166;SDS011;9208;42.688;23.404;2023-04-03T00:20:25;8.90;;;5.50;;
18166;SDS011;9208;42.688;23.404;2023-04-03T00:22:52;5.60;;;4.97;;
18166;SDS011;9208;42.688;23.404;2023-04-03T00:25:18;6.40;;;4.63;;
18166;SDS011;9208;42.688;23.404;2023-04-03T00:27:44;5.30;;;4.10;;
18166;SDS011;9208;42.688;23.404;2023-04-03T00:30:10;8.50;;;4.67;;
18166;SDS011;9208;42.688;23.404;2023-04-03T00:32:38;7.23;;;5.80;;
18166;SDS011;9208;42.688;23.404;2023-04-03T00:35:04;8.17;;;5.63;;
18166;SDS011;9208;42.688;23.404;2023-04-03T00:37:30;7.30;;;5.10;;
18166;SDS011;9208;42.688;23.404;2023-04-03T00:39:55;9.67;;;6.23;;
18166;SDS011;9208;42.688;23.404;2023-04-03T00:42:21;8.00;;;5.60;;
18166;SDS011;9208;42.688;23.404;2023-04-03T00:47:13;5.40;;;4.63;;
18166;SDS011;9208;42.688;23.404;2023-04-03T00:49:41;7.20;;;5.07;;
18166;SDS011;9208;42.688;23.404;2023-04-03T00:52:09;6.83;;;6.00;;
18166;SDS011;9208;42.688;23.404;2023-04-03T00:54:38;9.90;;;7.23;;
18166;SDS011;9208;42.688;23.404;2023-04-03T00:57:06;7.87;;;6.97;;
18166;SDS011;9208;42.688;23.404;2023-04-03T00:59:33;8.67;;;7.10;;
18166;SDS011;9208;42.688;23.404;2023-04-03T01:02:03;8.13;;;6.53;;
18166;SDS011;9208;42.688;23.404;2023-04-03T01:04:33;12.37;;;5.97;;
18166;SDS011;9208;42.688;23.404;2023-04-03T01:07:02;8.30;;;6.47;;
18166;SDS011;9208;42.688;23.404;2023-04-03T01:09:31;8.47;;;6.10;;
18166;SDS011;9208;42.688;23.404;2023-04-03T01:14:45;6.40;;;5.57;;
18166;SDS011;9208;42.688;23.404;2023-04-03T01:25:25;7.93;;;6.17;;
18166;SDS011;9208;42.688;23.404;2023-04-03T01:27:51;7.60;;;5.67;;
18166;SDS011;9208;42.688;23.404;2023-04-03T01:30:17;7.87;;;5.93;;
18166;SDS011;9208;42.688;23.404;2023-04-03T01:32:45;6.67;;;5.37;;
18166;SDS011;9208;42.688;23.404;2023-04-03T01:35:11;6.97;;;4.97;;
18166;SDS011;9208;42.688;23.404;2023-04-03T01:37:37;7.03;;;5.13;;
18166;SDS011;9208;42.688;23.404;2023-04-03T01:40:03;6.73;;;5.20;;
18166;SDS011;9208;42.688;23.404;2023-04-03T01:42:29;6.10;;;4.87;;
18166;SDS011;9208;42.688;23.404;2023-04-03T01:44:54;5.47;;;4.70;;
18166;SDS011;9208;42.688;23.404;2023-04-03T01:47:20;5.37;;;4.47;;
18166;SDS011;9208;42.688;23.404;2023-04-03T01:49:46;4.73;;;4.03;;
18166;SDS011;9208;42.688;23.404;2023-04-03T01:52:12;4.80;;;3.90;;
18166;SDS011;9208;42.688;23.404;2023-04-03T01:54:38;4.87;;;3.77;;
18166;SDS011;9208;42.688;23.404;2023-04-03T01:57:03;6.60;;;3.90;;
18166;SDS011;9208;42.688;23.404;2023-04-03T01:59:29;5.53;;;3.67;;
18166;SDS011;9208;42.688;23.404;2023-04-03T02:01:54;5.37;;;4.10;;
18166;SDS011;9208;42.688;23.404;2023-04-03T02:04:20;7.40;;;4.17;;
18166;SDS011;9208;42.688;23.404;2023-04-03T02:06:45;4.80;;;4.07;;
18166;SDS011;9208;42.688;23.404;2023-04-03T02:09:11;5.33;;;3.83;;
18166;SDS011;9208;42.688;23.404;2023-04-03T02:11:36;3.73;;;3.40;;
18166;SDS011;9208;42.688;23.404;2023-04-03T02:14:02;4.83;;;4.03;;
18166;SDS011;9208;42.688;23.404;2023-04-03T02:16:27;5.77;;;4.00;;
18166;SDS011;9208;42.688;23.404;2023-04-03T02:18:53;5.07;;;4.57;;
18166;SDS011;9208;42.688;23.404;2023-04-03T02:21:19;6.10;;;4.37;;
18166;SDS011;9208;42.688;23.404;2023-04-03T02:23:44;6.63;;;5.47;;
18166;SDS011;9208;42.688;23.404;2023-04-03T02:26:11;9.23;;;7.77;;
18166;SDS011;9208;42.688;23.404;2023-04-03T02:28:38;5.77;;;4.40;;
18166;SDS011;9208;42.688;23.404;2023-04-03T02:31:04;7.40;;;5.47;;
18166;SDS011;9208;42.688;23.404;2023-04-03T02:33:30;7.40;;;5.00;;
18166;SDS011;9208;42.688;23.404;2023-04-03T02:35:56;6.33;;;4.50;;
18166;SDS011;9208;42.688;23.404;2023-04-03T02:38:22;5.67;;;5.00;;
18166;SDS011;9208;42.688;23.404;2023-04-03T02:40:49;7.43;;;5.40;;
18166;SDS011;9208;42.688;23.404;2023-04-03T02:43:14;7.07;;;5.33;;
18166;SDS011;9208;42.688;23.404;2023-04-03T02:45:40;7.60;;;4.97;;
18166;SDS011;9208;42.688;23.404;2023-04-03T02:48:05;5.50;;;4.67;;
18166;SDS011;9208;42.688;23.404;2023-04-03T02:50:31;8.10;;;5.50;;
18166;SDS011;9208;42.688;23.404;2023-04-03T02:52:56;8.13;;;5.40;;
18166;SDS011;9208;42.688;23.404;2023-04-03T02:55:21;8.07;;;5.23;;
18166;SDS011;9208;42.688;23.404;2023-04-03T02:57:47;5.67;;;5.10;;
18166;SDS011;9208;42.688;23.404;2023-04-03T03:00:12;7.47;;;5.67;;
18166;SDS011;9208;42.688;23.404;2023-04-03T03:02:39;7.53;;;5.33;;
18166;SDS011;9208;42.688;23.404;2023-04-03T03:05:05;6.97;;;5.00;;
18166;SDS011;9208;42.688;23.404;2023-04-03T03:07:32;8.10;;;5.63;;
18166;SDS011;9208;42.688;23.404;2023-04-03T03:09:57;6.40;;;5.33;;
18166;SDS011;9208;42.688;23.404;2023-04-03T03:12:23;7.17;;;5.60;;
18166;SDS011;9208;42.688;23.404;2023-04-03T03:14:50;8.07;;;5.93;;
18166;SDS011;9208;42.688;23.404;2023-04-03T03:17:16;7.67;;;5.83;;
18166;SDS011;9208;42.688;23.404;2023-04-03T03:19:41;7.63;;;6.83;;
18166;SDS011;9208;42.688;23.404;2023-04-03T03:22:07;11.90;;;8.10;;
18166;SDS011;9208;42.688;23.404;2023-04-03T03:24:33;12.00;;;8.10;;
18166;SDS011;9208;42.688;23.404;2023-04-03T03:26:59;13.27;;;8.13;;
18166;SDS011;9208;42.688;23.404;2023-04-03T03:29:25;8.50;;;6.43;;
18166;SDS011;9208;42.688;23.404;2023-04-03T03:31:51;6.90;;;5.90;;
18166;SDS011;9208;42.688;23.404;2023-04-03T03:34:17;11.97;;;6.43;;
18166;SDS011;9208;42.688;23.404;2023-04-03T03:36:42;9.80;;;5.83;;
18166;SDS011;9208;42.688;23.404;2023-04-03T03:39:10;7.70;;;5.93;;
18166;SDS011;9208;42.688;23.404;2023-04-03T03:41:36;8.07;;;6.00;;
18166;SDS011;9208;42.688;23.404;2023-04-03T03:44:01;8.80;;;5.73;;
18166;SDS011;9208;42.688;23.404;2023-04-03T03:46:27;10.43;;;6.10;;
18166;SDS011;9208;42.688;23.404;2023-04-03T03:48:52;7.30;;;6.17;;
18166;SDS011;9208;42.688;23.404;2023-04-03T03:51:17;8.93;;;5.57;;
18166;SDS011;9208;42.688;23.404;2023-04-03T03:53:43;8.53;;;5.83;;
18166;SDS011;9208;42.688;23.404;2023-04-03T03:56:08;7.80;;;6.30;;
18166;SDS011;9208;42.688;23.404;2023-04-03T03:58:34;9.70;;;7.43;;
18166;SDS011;9208;42.688;23.404;2023-04-03T04:01:01;8.60;;;6.77;;
18166;SDS011;9208;42.688;23.404;2023-04-03T04:03:27;7.47;;;6.17;;
18166;SDS011;9208;42.688;23.404;2023-04-03T04:05:53;10.43;;;8.50;;
18166;SDS011;9208;42.688;23.404;2023-04-03T04:08:18;10.40;;;9.30;;
18166;SDS011;9208;42.688;23.404;2023-04-03T04:10:44;10.30;;;9.40;;
18166;SDS011;9208;42.688;23.404;2023-04-03T04:13:09;11.27;;;10.17;;
18166;SDS011;9208;42.688;23.404;2023-04-03T04:15:34;12.30;;;9.80;;
18166;SDS011;9208;42.688;23.404;2023-04-03T04:18:00;8.07;;;7.27;;
18166;SDS011;9208;42.688;23.404;2023-04-03T04:20:25;6.10;;;5.50;;
18166;SDS011;9208;42.688;23.404;2023-04-03T04:22:51;4.80;;;4.30;;
18166;SDS011;9208;42.688;23.404;2023-04-03T04:25:16;5.33;;;4.37;;
18166;SDS011;9208;42.688;23.404;2023-04-03T04:27:42;6.13;;;4.13;;
18166;SDS011;9208;42.688;23.404;2023-04-03T04:30:07;5.07;;;4.43;;
18166;SDS011;9208;42.688;23.404;2023-04-03T04:32:35;5.23;;;4.00;;
18166;SDS011;9208;42.688;23.404;2023-04-03T04:35:00;5.80;;;4.73;;
18166;SDS011;9208;42.688;23.404;2023-04-03T04:37:26;5.50;;;4.63;;
18166;SDS011;9208;42.688;23.404;2023-04-03T04:39:51;5.30;;;4.40;;
18166;SDS011;9208;42.688;23.404;2023-04-03T04:42:16;8.67;;;5.13;;
18166;SDS011;9208;42.688;23.404;2023-04-03T04:44:42;6.53;;;5.00;;
18166;SDS011;9208;42.688;23.404;2023-04-03T04:47:07;10.23;;;8.07;;
18166;SDS011;9208;42.688;23.404;2023-04-03T04:49:35;12.67;;;8.87;;
18166;SDS011;9208;42.688;23.404;2023-04-03T04:52:00;9.93;;;8.00;;
18166;SDS011;9208;42.688;23.404;2023-04-03T04:54:26;8.40;;;7.27;;
18166;SDS011;9208;42.688;23.404;2023-04-03T04:56:51;8.43;;;6.83;;
18166;SDS011;9208;42.688;23.404;2023-04-03T04:59:17;7.93;;;7.10;;
18166;SDS011;9208;42.688;23.404;2023-04-03T05:01:42;10.07;;;7.83;;
18166;SDS011;9208;42.688;23.404;2023-04-03T05:04:08;8.43;;;7.23;;
18166;SDS011;9208;42.688;23.404;2023-04-03T05:06:34;8.43;;;7.07;;
18166;SDS011;9208;42.688;23.404;2023-04-03T05:09:00;8.13;;;6.43;;
18166;SDS011;9208;42.688;23.404;2023-04-03T05:11:25;8.10;;;6.47;;
18166;SDS011;9208;42.688;23.404;2023-04-03T05:13:51;9.67;;;7.10;;
18166;SDS011;9208;42.688;23.404;2023-04-03T05:16:16;10.57;;;6.97;;
18166;SDS011;9208;42.688;23.404;2023-04-03T05:18:42;9.83;;;7.93;;
18166;SDS011;9208;42.688;23.404;2023-04-03T05:21:07;13.83;;;9.90;;
18166;SDS011;9208;42.688;23.404;2023-04-03T05:23:35;13.57;;;9.30;;
18166;SDS011;9208;42.688;23.404;2023-04-03T05:26:01;10.50;;;8.70;;
18166;SDS011;9208;42.688;23.404;2023-04-03T05:28:26;13.07;;;9.07;;
18166;SDS011;9208;42.688;23.404;2023-04-03T05:30:52;12.90;;;8.83;;
18166;SDS011;9208;42.688;23.404;2023-04-03T05:33:19;11.57;;;7.70;;
18166;SDS011;9208;42.688;23.404;2023-04-03T05:35:45;12.63;;;8.10;;
18166;SDS011;9208;42.688;23.404;2023-04-03T05:38:10;17.00;;;9.03;;
18166;SDS011;9208;42.688;23.404;2023-04-03T05:40:36;13.07;;;7.83;;
18166;SDS011;9208;42.688;23.404;2023-04-03T05:43:02;15.23;;;7.87;;
18166;SDS011;9208;42.688;23.404;2023-04-03T05:45:28;48.87;;;11.10;;
18166;SDS011;9208;42.688;23.404;2023-04-03T05:47:53;12.77;;;8.17;;
18166;SDS011;9208;42.688;23.404;2023-04-03T05:50:19;8.93;;;7.33;;
18166;SDS011;9208;42.688;23.404;2023-04-03T05:52:45;9.27;;;7.23;;
18166;SDS011;9208;42.688;23.404;2023-04-03T05:55:13;16.70;;;7.37;;
18166;SDS011;9208;42.688;23.404;2023-04-03T05:57:39;12.30;;;7.20;;
18166;SDS011;9208;42.688;23.404;2023-04-03T06:00:07;24.87;;;8.43;;
18166;SDS011;9208;42.688;23.404;2023-04-03T06:02:34;12.57;;;8.00;;
18166;SDS011;9208;42.688;23.404;2023-04-03T06:05:01;17.73;;;9.67;;
18166;SDS011;9208;42.688;23.404;2023-04-03T06:07:27;18.17;;;9.87;;
18166;SDS011;9208;42.688;23.404;2023-04-03T06:09:54;14.07;;;10.07;;
18166;SDS011;9208;42.688;23.404;2023-04-03T06:12:21;17.40;;;10.43;;
18166;SDS011;9208;42.688;23.404;2023-04-03T06:14:47;18.23;;;9.77;;
18166;SDS011;9208;42.688;23.404;2023-04-03T06:17:16;14.97;;;9.80;;
18166;SDS011;9208;42.688;23.404;2023-04-03T06:19:43;16.87;;;10.37;;
18166;SDS011;9208;42.688;23.404;2023-04-03T06:22:09;16.40;;;9.90;;
18166;SDS011;9208;42.688;23.404;2023-04-03T06:24:36;16.10;;;10.47;;
18166;SDS011;9208;42.688;23.404;2023-04-03T06:27:02;15.10;;;9.90;;
18166;SDS011;9208;42.688;23.404;2023-04-03T06:29:27;18.87;;;11.30;;
18166;SDS011;9208;42.688;23.404;2023-04-03T06:31:53;15.10;;;11.10;;
18166;SDS011;9208;42.688;23.404;2023-04-03T06:34:18;17.87;;;10.93;;
18166;SDS011;9208;42.688;23.404;2023-04-03T06:36:45;13.53;;;9.70;;
18166;SDS011;9208;42.688;23.404;2023-04-03T06:39:16;18.77;;;9.67;;
18166;SDS011;9208;42.688;23.404;2023-04-03T06:41:45;16.13;;;10.80;;
18166;SDS011;9208;42.688;23.404;2023-04-03T06:44:11;23.20;;;11.50;;
18166;SDS011;9208;42.688;23.404;2023-04-03T06:46:38;15.63;;;10.63;;
18166;SDS011;9208;42.688;23.404;2023-04-03T06:49:04;18.13;;;10.37;;
18166;SDS011;9208;42.688;23.404;2023-04-03T06:51:32;14.33;;;9.63;;
18166;SDS011;9208;42.688;23.404;2023-04-03T06:53:58;19.13;;;10.27;;
18166;SDS011;9208;42.688;23.404;2023-04-03T06:56:25;20.13;;;10.33;;
18166;SDS011;9208;42.688;23.404;2023-04-03T06:58:51;16.60;;;9.77;;
18166;SDS011;9208;42.688;23.404;2023-04-03T07:01:19;11.47;;;9.10;;
18166;SDS011;9208;42.688;23.404;2023-04-03T07:03:45;15.43;;;9.07;;
18166;SDS011;9208;42.688;23.404;2023-04-03T07:06:13;13.43;;;8.67;;
18166;SDS011;9208;42.688;23.404;2023-04-03T07:08:40;15.93;;;9.50;;
18166;SDS011;9208;42.688;23.404;2023-04-03T07:11:07;15.77;;;9.67;;
18166;SDS011;9208;42.688;23.404;2023-04-03T07:13:33;12.87;;;9.40;;
18166;SDS011;9208;42.688;23.404;2023-04-03T07:15:59;17.70;;;10.40;;
18166;SDS011;9208;42.688;23.404;2023-04-03T07:18:25;17.63;;;9.83;;
18166;SDS011;9208;42.688;23.404;2023-04-03T07:20:51;92.30;;;18.77;;
18166;SDS011;9208;42.688;23.404;2023-04-03T07:23:17;19.83;;;11.17;;
18166;SDS011;9208;42.688;23.404;2023-04-03T07:25:43;15.90;;;9.27;;
18166;SDS011;9208;42.688;23.404;2023-04-03T07:28:13;16.07;;;9.77;;
18166;SDS011;9208;42.688;23.404;2023-04-03T07:30:46;15.33;;;9.37;;
18166;SDS011;9208;42.688;23.404;2023-04-03T07:33:13;16.93;;;10.30;;
18166;SDS011;9208;42.688;23.404;2023-04-03T07:35:40;24.27;;;11.30;;
18166;SDS011;9208;42.688;23.404;2023-04-03T07:38:07;14.57;;;9.53;;
18166;SDS011;9208;42.688;23.404;2023-04-03T07:40:33;12.63;;;8.87;;
18166;SDS011;9208;42.688;23.404;2023-04-03T07:42:58;10.60;;;7.77;;
18166;SDS011;9208;42.688;23.404;2023-04-03T07:45:24;10.77;;;8.27;;
18166;SDS011;9208;42.688;23.404;2023-04-03T07:47:50;12.33;;;8.00;;
18166;SDS011;9208;42.688;23.404;2023-04-03T07:50:16;11.27;;;7.67;;
18166;SDS011;9208;42.688;23.404;2023-04-03T07:52:43;7.67;;;6.90;;
18166;SDS011;9208;42.688;23.404;2023-04-03T07:55:09;10.90;;;7.43;;
18166;SDS011;9208;42.688;23.404;2023-04-03T07:57:35;13.97;;;8.67;;
18166;SDS011;9208;42.688;23.404;2023-04-03T08:00:01;11.77;;;8.70;;
18166;SDS011;9208;42.688;23.404;2023-04-03T08:02:27;12.53;;;8.90;;
18166;SDS011;9208;42.688;23.404;2023-04-03T08:04:53;11.13;;;8.43;;
18166;SDS011;9208;42.688;23.404;2023-04-03T08:07:18;12.90;;;9.13;;
18166;SDS011;9208;42.688;23.404;2023-04-03T08:09:44;12.93;;;9.07;;
18166;SDS011;9208;42.688;23.404;2023-04-03T08:12:10;19.27;;;9.40;;
18166;SDS011;9208;42.688;23.404;2023-04-03T08:14:36;12.20;;;9.23;;
18166;SDS011;9208;42.688;23.404;2023-04-03T08:17:02;12.43;;;9.03;;
18166;SDS011;9208;42.688;23.404;2023-04-03T08:19:29;13.47;;;8.87;;
18166;SDS011;9208;42.688;23.404;2023-04-03T08:21:55;16.00;;;9.43;;
18166;SDS011;9208;42.688;23.404;2023-04-03T08:24:23;13.57;;;8.77;;
18166;SDS011;9208;42.688;23.404;2023-04-03T08:26:49;11.47;;;7.40;;
18166;SDS011;9208;42.688;23.404;2023-04-03T08:29:15;12.33;;;7.87;;
18166;SDS011;9208;42.688;23.404;2023-04-03T08:31:40;12.17;;;8.27;;
18166;SDS011;9208;42.688;23.404;2023-04-03T08:34:05;9.97;;;7.03;;
18166;SDS011;9208;42.688;23.404;2023-04-03T08:36:31;14.30;;;7.57;;
18166;SDS011;9208;42.688;23.404;2023-04-03T08:38:57;20.00;;;8.70;;
18166;SDS011;9208;42.688;23.404;2023-04-03T08:44:17;10.33;;;8.73;;
18166;SDS011;9208;42.688;23.404;2023-04-03T08:47:02;12.10;;;9.30;;
18166;SDS011;9208;42.688;23.404;2023-04-03T08:49:42;16.63;;;9.93;;
18166;SDS011;9208;42.688;23.404;2023-04-03T08:52:13;11.87;;;9.20;;
18166;SDS011;9208;42.688;23.404;2023-04-03T08:54:56;14.53;;;9.20;;
18166;SDS011;9208;42.688;23.404;2023-04-03T08:57:34;14.73;;;9.03;;
18166;SDS011;9208;42.688;23.404;2023-04-03T09:00:15;13.60;;;8.60;;
18166;SDS011;9208;42.688;23.404;2023-04-03T09:02:47;12.40;;;8.77;;
18166;SDS011;9208;42.688;23.404;2023-04-03T09:05:20;14.63;;;9.63;;
18166;SDS011;9208;42.688;23.404;2023-04-03T09:08:07;13.77;;;8.93;;
18166;SDS011;9208;42.688;23.404;2023-04-03T09:10:43;14.77;;;8.73;;
18166;SDS011;9208;42.688;23.404;2023-04-03T09:13:30;17.00;;;8.73;;
18166;SDS011;9208;42.688;23.404;2023-04-03T09:16:04;12.27;;;9.27;;
18166;SDS011;9208;42.688;23.404;2023-04-03T09:19:02;13.00;;;9.17;;
18166;SDS011;9208;42.688;23.404;2023-04-03T09:21:51;12.20;;;9.00;;
18166;SDS011;9208;42.688;23.404;2023-04-03T09:24:17;13.17;;;9.13;;
18166;SDS011;9208;42.688;23.404;2023-04-03T09:29:22;11.17;;;8.77;;
18166;SDS011;9208;42.688;23.404;2023-04-03T09:31:50;16.60;;;9.43;;
18166;SDS011;9208;42.688;23.404;2023-04-03T09:36:52;13.50;;;8.70;;
18166;SDS011;9208;42.688;23.404;2023-04-03T09:39:24;11.13;;;8.43;;
18166;SDS011;9208;42.688;23.404;2023-04-03T09:42:02;10.83;;;8.47;;
18166;SDS011;9208;42.688;23.404;2023-04-03T09:44:37;9.20;;;7.50;;
18166;SDS011;9208;42.688;23.404;2023-04-03T09:47:22;12.37;;;7.77;;
18166;SDS011;9208;42.688;23.404;2023-04-03T09:49:48;9.00;;;6.60;;
18166;SDS011;9208;42.688;23.404;2023-04-03T09:52:20;9.57;;;7.37;;
18166;SDS011;9208;42.688;23.404;2023-04-03T09:54:49;8.63;;;6.80;;
18166;SDS011;9208;42.688;23.404;2023-04-03T09:57:15;7.63;;;6.60;;
18166;SDS011;9208;42.688;23.404;2023-04-03T09:59:47;9.03;;;6.67;;
18166;SDS011;9208;42.688;23.404;2023-04-03T10:05:04;6.53;;;5.30;;
18166;SDS011;9208;42.688;23.404;2023-04-03T10:07:49;9.67;;;5.80;;
18166;SDS011;9208;42.688;23.404;2023-04-03T10:10:20;7.13;;;4.90;;
18166;SDS011;9208;42.688;23.404;2023-04-03T10:13:03;10.20;;;6.00;;
18166;SDS011;9208;42.688;23.404;2023-04-03T10:15:41;10.87;;;5.90;;
18166;SDS011;9208;42.688;23.404;2023-04-03T10:18:32;9.80;;;5.83;;
18166;SDS011;9208;42.688;23.404;2023-04-03T10:24:15;8.30;;;5.60;;
18166;SDS011;9208;42.688;23.404;2023-04-03T10:35:02;13.47;;;6.17;;
18166;SDS011;9208;42.688;23.404;2023-04-03T10:48:40;18.00;;;5.77;;
18166;SDS011;9208;42.688;23.404;2023-04-03T10:56:42;13.87;;;5.20;;
18166;SDS011;9208;42.688;23.404;2023-04-03T10:59:30;13.93;;;5.10;;
18166;SDS011;9208;42.688;23.404;2023-04-03T11:02:02;10.60;;;5.33;;
18166;SDS011;9208;42.688;23.404;2023-04-03T11:04:34;11.07;;;4.70;;
18166;SDS011;9208;42.688;23.404;2023-04-03T11:07:10;10.33;;;6.13;;
18166;SDS011;9208;42.688;23.404;2023-04-03T11:09:37;11.70;;;6.10;;
18166;SDS011;9208;42.688;23.404;2023-04-03T11:12:40;10.20;;;4.77;;
18166;SDS011;9208;42.688;23.404;2023-04-03T11:15:03;7.50;;;4.63;;
18166;SDS011;9208;42.688;23.404;2023-04-03T11:17:37;7.63;;;4.27;;
18166;SDS011;9208;42.688;23.404;2023-04-03T11:20:19;6.73;;;3.57;;
18166;SDS011;9208;42.688;23.404;2023-04-03T11:25:52;6.70;;;3.53;;
18166;SDS011;9208;42.688;23.404;2023-04-03T11:28:32;9.23;;;3.57;;
18166;SDS011;9208;42.688;23.404;2023-04-03T11:36:28;3.73;;;3.10;;
18166;SDS011;9208;42.688;23.404;2023-04-03T11:38:59;8.67;;;3.13;;
18166;SDS011;9208;42.688;23.404;2023-04-03T11:41:32;7.33;;;3.80;;
18166;SDS011;9208;42.688;23.404;2023-04-03T11:44:05;6.30;;;3.60;;
18166;SDS011;9208;42.688;23.404;2023-04-03T11:46:58;7.37;;;4.03;;
18166;SDS011;9208;42.688;23.404;2023-04-03T11:55:41;4.93;;;3.47;;
18166;SDS011;9208;42.688;23.404;2023-04-03T12:08:38;7.30;;;4.63;;
18166;SDS011;9208;42.688;23.404;2023-04-03T12:13:40;7.07;;;4.17;;
18166;SDS011;9208;42.688;23.404;2023-04-03T12:16:23;4.43;;;3.33;;
18166;SDS011;9208;42.688;23.404;2023-04-03T12:26:30;7.90;;;4.40;;
18166;SDS011;9208;42.688;23.404;2023-04-03T12:29:01;4.00;;;3.40;;
18166;SDS011;9208;42.688;23.404;2023-04-03T12:37:31;6.80;;;3.93;;
18166;SDS011;9208;42.688;23.404;2023-04-03T12:45:50;3.00;;;2.73;;
18166;SDS011;9208;42.688;23.404;2023-04-03T12:48:30;3.93;;;2.80;;
18166;SDS011;9208;42.688;23.404;2023-04-03T12:50:58;5.93;;;4.60;;
18166;SDS011;9208;42.688;23.404;2023-04-03T12:53:29;4.00;;;3.50;;
18166;SDS011;9208;42.688;23.404;2023-04-03T12:58:49;5.57;;;4.37;;
18166;SDS011;9208;42.688;23.404;2023-04-03T13:01:17;6.57;;;4.00;;
18166;SDS011;9208;42.688;23.404;2023-04-03T13:03:48;4.57;;;3.90;;
18166;SDS011;9208;42.688;23.404;2023-04-03T13:06:18;6.10;;;4.20;;
18166;SDS011;9208;42.688;23.404;2023-04-03T13:08:55;6.67;;;4.90;;
18166;SDS011;9208;42.688;23.404;2023-04-03T13:11:24;4.80;;;4.03;;
18166;SDS011;9208;42.688;23.404;2023-04-03T13:13:54;13.07;;;4.73;;
18166;SDS011;9208;42.688;23.404;2023-04-03T13:16:28;11.57;;;4.97;;
18166;SDS011;9208;42.688;23.404;2023-04-03T13:18:54;15.53;;;5.30;;
18166;SDS011;9208;42.688;23.404;2023-04-03T13:21:26;9.37;;;4.70;;
18166;SDS011;9208;42.688;23.404;2023-04-03T13:23:55;5.40;;;4.30;;
18166;SDS011;9208;42.688;23.404;2023-04-03T13:26:28;5.20;;;4.33;;
18166;SDS011;9208;42.688;23.404;2023-04-03T13:28:57;5.07;;;4.57;;
18166;SDS011;9208;42.688;23.404;2023-04-03T13:31:31;6.97;;;4.60;;
18166;SDS011;9208;42.688;23.404;2023-04-03T13:36:57;6.47;;;5.07;;
18166;SDS011;9208;42.688;23.404;2023-04-03T13:39:26;6.00;;;5.40;;
18166;SDS011;9208;42.688;23.404;2023-04-03T13:41:59;6.70;;;6.00;;
18166;SDS011;9208;42.688;23.404;2023-04-03T13:44:39;6.07;;;5.40;;
18166;SDS011;9208;42.688;23.404;2023-04-03T13:49:43;5.03;;;4.53;;
18166;SDS011;9208;42.688;23.404;2023-04-03T13:52:32;6.83;;;5.80;;
18166;SDS011;9208;42.688;23.404;2023-04-03T13:55:15;5.90;;;5.27;;
18166;SDS011;9208;42.688;23.404;2023-04-03T13:57:54;5.77;;;5.20;;
18166;SDS011;9208;42.688;23.404;2023-04-03T14:00:26;4.47;;;4.07;;
18166;SDS011;9208;42.688;23.404;2023-04-03T14:02:55;10.40;;;7.37;;
18166;SDS011;9208;42.688;23.404;2023-04-03T14:05:22;3.83;;;3.53;;
18166;SDS011;9208;42.688;23.404;2023-04-03T14:07:49;6.07;;;4.40;;
18166;SDS011;9208;42.688;23.404;2023-04-03T14:10:14;10.40;;;5.23;;
18166;SDS011;9208;42.688;23.404;2023-04-03T14:12:40;5.50;;;4.07;;
18166;SDS011;9208;42.688;23.404;2023-04-03T14:15:16;3.10;;;2.80;;
18166;SDS011;9208;42.688;23.404;2023-04-03T14:17:49;4.47;;;4.07;;
18166;SDS011;9208;42.688;23.404;2023-04-03T14:20:17;4.07;;;3.40;;
18166;SDS011;9208;42.688;23.404;2023-04-03T14:22:46;5.33;;;3.60;;
18166;SDS011;9208;42.688;23.404;2023-04-03T14:25:13;4.63;;;3.40;;
18166;SDS011;9208;42.688;23.404;2023-04-03T14:27:40;3.60;;;2.80;;
18166;SDS011;9208;42.688;23.404;2023-04-03T14:30:11;3.63;;;3.00;;
18166;SDS011;9208;42.688;23.404;2023-04-03T14:32:39;4.97;;;3.47;;
18166;SDS011;9208;42.688;23.404;2023-04-03T14:35:05;4.57;;;4.10;;
18166;SDS011;9208;42.688;23.404;2023-04-03T14:37:31;7.27;;;4.93;;
18166;SDS011;9208;42.688;23.404;2023-04-03T14:39:58;6.87;;;4.63;;
18166;SDS011;9208;42.688;23.404;2023-04-03T14:42:30;6.83;;;3.90;;
18166;SDS011;9208;42.688;23.404;2023-04-03T14:44:58;5.80;;;4.50;;
18166;SDS011;9208;42.688;23.404;2023-04-03T14:47:26;5.43;;;4.93;;
18166;SDS011;9208;42.688;23.404;2023-04-03T14:49:54;5.40;;;4.47;;
18166;SDS011;9208;42.688;23.404;2023-04-03T14:52:30;4.60;;;4.20;;
18166;SDS011;9208;42.688;23.404;2023-04-03T14:54:57;5.00;;;4.50;;
18166;SDS011;9208;42.688;23.404;2023-04-03T14:57:24;4.10;;;3.70;;
18166;SDS011;9208;42.688;23.404;2023-04-03T14:59:52;4.60;;;4.20;;
18166;SDS011;9208;42.688;23.404;2023-04-03T15:04:52;4.57;;;4.17;;
18166;SDS011;9208;42.688;23.404;2023-04-03T15:07:19;4.57;;;4.17;;
18166;SDS011;9208;42.688;23.404;2023-04-03T15:09:45;5.93;;;4.17;;
18166;SDS011;9208;42.688;23.404;2023-04-03T15:12:10;5.73;;;4.70;;
18166;SDS011;9208;42.688;23.404;2023-04-03T15:14:36;4.87;;;4.47;;
18166;SDS011;9208;42.688;23.404;2023-04-03T15:17:02;5.57;;;4.43;;
18166;SDS011;9208;42.688;23.404;2023-04-03T15:19:28;4.83;;;4.40;;
18166;SDS011;9208;42.688;23.404;2023-04-03T15:21:55;5.90;;;4.63;;
18166;SDS011;9208;42.688;23.404;2023-04-03T15:24:20;4.90;;;4.23;;
18166;SDS011;9208;42.688;23.404;2023-04-03T15:26:46;4.20;;;3.80;;
18166;SDS011;9208;42.688;23.404;2023-04-03T15:29:11;4.57;;;4.00;;
18166;SDS011;9208;42.688;23.404;2023-04-03T15:31:37;4.30;;;3.90;;
18166;SDS011;9208;42.688;23.404;2023-04-03T15:34:02;4.90;;;4.40;;
18166;SDS011;9208;42.688;23.404;2023-04-03T15:36:28;4.30;;;3.90;;
18166;SDS011;9208;42.688;23.404;2023-04-03T15:38:53;4.70;;;4.30;;
18166;SDS011;9208;42.688;23.404;2023-04-03T15:41:19;5.20;;;4.70;;
18166;SDS011;9208;42.688;23.404;2023-04-03T15:43:44;5.47;;;4.87;;
18166;SDS011;9208;42.688;23.404;2023-04-03T15:46:09;5.17;;;4.70;;
18166;SDS011;9208;42.688;23.404;2023-04-03T15:48:35;5.80;;;5.30;;
18166;SDS011;9208;42.688;23.404;2023-04-03T15:51:01;6.07;;;5.30;;
18166;SDS011;9208;42.688;23.404;2023-04-03T15:53:26;5.23;;;4.73;;
18166;SDS011;9208;42.688;23.404;2023-04-03T15:55:52;4.87;;;4.40;;
18166;SDS011;9208;42.688;23.404;2023-04-03T15:58:17;5.67;;;4.33;;
18166;SDS011;9208;42.688;23.404;2023-04-03T16:00:43;4.50;;;4.10;;
18166;SDS011;9208;42.688;23.404;2023-04-03T16:03:10;3.57;;;3.27;;
18166;SDS011;9208;42.688;23.404;2023-04-03T16:05:38;3.90;;;3.57;;
18166;SDS011;9208;42.688;23.404;2023-04-03T16:08:04;3.47;;;3.17;;
18166;SDS011;9208;42.688;23.404;2023-04-03T16:10:31;4.53;;;3.40;;
18166;SDS011;9208;42.688;23.404;2023-04-03T16:12:57;3.80;;;3.50;;
18166;SDS011;9208;42.688;23.404;2023-04-03T16:15:22;4.80;;;3.87;;
18166;SDS011;9208;42.688;23.404;2023-04-03T16:17:49;4.27;;;3.87;;
18166;SDS011;9208;42.688;23.404;2023-04-03T16:20:15;5.83;;;4.80;;
18166;SDS011;9208;42.688;23.404;2023-04-03T16:22:41;6.10;;;5.20;;
18166;SDS011;9208;42.688;23.404;2023-04-03T16:25:08;7.17;;;5.37;;
18166;SDS011;9208;42.688;23.404;2023-04-03T16:27:34;8.37;;;6.37;;
18166;SDS011;9208;42.688;23.404;2023-04-03T16:30:00;9.77;;;6.17;;
18166;SDS011;9208;42.688;23.404;2023-04-03T16:32:27;9.87;;;6.27;;
18166;SDS011;9208;42.688;23.404;2023-04-03T16:34:55;7.20;;;6.00;;
18166;SDS011;9208;42.688;23.404;2023-04-03T16:37:21;6.70;;;5.17;;
18166;SDS011;9208;42.688;23.404;2023-04-03T16:39:47;4.30;;;3.90;;